sensor_id;sensor_type;location;lat;lon;timestamp;temperature;humidity
75091;DHT22;63674;48.048;8.306;2023-11-19T00:00:20;8.40;99.90
75091;DHT22;63674;48.048;8.306;2023-11-19T00:02:48;8.40;99.90
75091;DHT22;63674;48.048;8.306;2023-11-19T00:05:17;8.40;99.90
75091;DHT22;63674;48.048;8.306;2023-11-19T00:07:46;8.40;99.90
75091;DHT22;63674;48.048;8.306;2023-11-19T00:10:15;8.40;99.90
75091;DHT22;63674;48.048;8.306;2023-11-19T00:12:48;8.50;99.90
75091;DHT22;63674;48.048;8.306;2023-11-19T00:15:18;8.50;99.90
75091;DHT22;63674;48.048;8.306;2023-11-19T00:17:47;8.60;99.90
75091;DHT22;63674;48.048;8.306;2023-11-19T00:20:18;8.60;99.90
75091;DHT22;63674;48.048;8.306;2023-11-19T00:22:49;8.60;99.90
75091;DHT22;63674;48.048;8.306;2023-11-19T00:25:20;8.60;99.90
75091;DHT22;63674;48.048;8.306;2023-11-19T00:27:51;8.60;99.90
75091;DHT22;63674;48.048;8.306;2023-11-19T00:30:21;8.60;99.90
75091;DHT22;63674;48.048;8.306;2023-11-19T00:32:49;8.70;99.90
75091;DHT22;63674;48.048;8.306;2023-11-19T00:35:18;8.70;99.90
75091;DHT22;63674;48.048;8.306;2023-11-19T00:37:47;8.80;99.90
75091;DHT22;63674;48.048;8.306;2023-11-19T00:40:16;8.80;99.90
75091;DHT22;63674;48.048;8.306;2023-11-19T00:42:45;8.80;99.90
75091;DHT22;63674;48.048;8.306;2023-11-19T00:45:16;8.80;99.90
75091;DHT22;63674;48.048;8.306;2023-11-19T00:47:44;8.90;99.90
75091;DHT22;63674;48.048;8.306;2023-11-19T00:50:13;8.80;99.90
75091;DHT22;63674;48.048;8.306;2023-11-19T00:52:42;8.90;99.90
75091;DHT22;63674;48.048;8.306;2023-11-19T00:55:11;8.90;99.90
75091;DHT22;63674;48.048;8.306;2023-11-19T00:57:39;8.80;99.90
75091;DHT22;63674;48.048;8.306;2023-11-19T01:00:09;8.90;99.90
75091;DHT22;63674;48.048;8.306;2023-11-19T01:02:48;8.90;99.90
75091;DHT22;63674;48.048;8.306;2023-11-19T01:05:19;8.90;99.90
75091;DHT22;63674;48.048;8.306;2023-11-19T01:07:50;8.90;99.90
75091;DHT22;63674;48.048;8.306;2023-11-19T01:10:21;8.90;99.90
75091;DHT22;63674;48.048;8.306;2023-11-19T01:12:50;8.90;99.90
75091;DHT22;63674;48.048;8.306;2023-11-19T01:15:19;8.90;99.90
75091;DHT22;63674;48.048;8.306;2023-11-19T01:17:49;8.90;99.90
75091;DHT22;63674;48.048;8.306;2023-11-19T01:20:20;8.90;99.90
75091;DHT22;63674;48.048;8.306;2023-11-19T01:22:49;8.90;99.90
75091;DHT22;63674;48.048;8.306;2023-11-19T01:25:18;8.90;99.90
75091;DHT22;63674;48.048;8.306;2023-11-19T01:27:47;9.00;99.90
75091;DHT22;63674;48.048;8.306;2023-11-19T01:30:17;9.00;99.90
75091;DHT22;63674;48.048;8.306;2023-11-19T01:32:47;9.00;99.90
75091;DHT22;63674;48.048;8.306;2023-11-19T01:35:17;9.00;99.90
75091;DHT22;63674;48.048;8.306;2023-11-19T01:37:45;9.00;99.90
75091;DHT22;63674;48.048;8.306;2023-11-19T01:40:14;9.00;99.90
75091;DHT22;63674;48.048;8.306;2023-11-19T01:42:43;9.00;99.90
75091;DHT22;63674;48.048;8.306;2023-11-19T01:45:21;9.10;99.90
75091;DHT22;63674;48.048;8.306;2023-11-19T01:47:57;9.10;99.90
75091;DHT22;63674;48.048;8.306;2023-11-19T01:50:28;9.10;99.90
75091;DHT22;63674;48.048;8.306;2023-11-19T01:52:57;9.10;99.90
75091;DHT22;63674;48.048;8.306;2023-11-19T01:55:27;9.10;99.90
75091;DHT22;63674;48.048;8.306;2023-11-19T01:57:59;9.10;99.90
75091;DHT22;63674;48.048;8.306;2023-11-19T02:00:30;9.10;99.90
75091;DHT22;63674;48.048;8.306;2023-11-19T02:03:03;9.20;99.90
75091;DHT22;63674;48.048;8.306;2023-11-19T02:05:32;9.20;99.90
75091;DHT22;63674;48.048;8.306;2023-11-19T02:08:01;9.20;99.90
75091;DHT22;63674;48.048;8.306;2023-11-19T02:10:30;9.20;99.90
75091;DHT22;63674;48.048;8.306;2023-11-19T02:12:59;9.20;99.90
75091;DHT22;63674;48.048;8.306;2023-11-19T02:15:31;9.20;99.90
75091;DHT22;63674;48.048;8.306;2023-11-19T02:18:19;9.20;99.90
75091;DHT22;63674;48.048;8.306;2023-11-19T02:20:49;9.20;99.90
75091;DHT22;63674;48.048;8.306;2023-11-19T02:23:18;9.20;99.90
75091;DHT22;63674;48.048;8.306;2023-11-19T02:25:54;9.20;99.90
75091;DHT22;63674;48.048;8.306;2023-11-19T02:28:37;9.30;99.90
75091;DHT22;63674;48.048;8.306;2023-11-19T02:31:06;9.20;99.90
75091;DHT22;63674;48.048;8.306;2023-11-19T02:33:55;9.30;99.90
75091;DHT22;63674;48.048;8.306;2023-11-19T02:36:42;9.30;99.90
75091;DHT22;63674;48.048;8.306;2023-11-19T02:39:29;9.30;99.90
75091;DHT22;63674;48.048;8.306;2023-11-19T02:42:16;9.30;99.90
75091;DHT22;63674;48.048;8.306;2023-11-19T02:45:06;9.30;99.90
75091;DHT22;63674;48.048;8.306;2023-11-19T02:47:59;9.30;99.90
75091;DHT22;63674;48.048;8.306;2023-11-19T02:50:48;9.20;99.90
75091;DHT22;63674;48.048;8.306;2023-11-19T02:53:36;9.20;99.90
75091;DHT22;63674;48.048;8.306;2023-11-19T02:56:25;9.20;99.90
75091;DHT22;63674;48.048;8.306;2023-11-19T02:59:14;9.20;99.90
75091;DHT22;63674;48.048;8.306;2023-11-19T03:02:14;9.20;99.90
75091;DHT22;63674;48.048;8.306;2023-11-19T03:05:02;9.30;99.90
75091;DHT22;63674;48.048;8.306;2023-11-19T03:07:50;9.30;99.90
75091;DHT22;63674;48.048;8.306;2023-11-19T03:10:37;9.40;99.90
75091;DHT22;63674;48.048;8.306;2023-11-19T03:13:24;9.30;99.90
75091;DHT22;63674;48.048;8.306;2023-11-19T03:16:12;9.40;99.90
75091;DHT22;63674;48.048;8.306;2023-11-19T03:19:01;9.40;99.90
75091;DHT22;63674;48.048;8.306;2023-11-19T03:21:50;9.40;99.90
75091;DHT22;63674;48.048;8.306;2023-11-19T03:24:37;9.40;99.90
75091;DHT22;63674;48.048;8.306;2023-11-19T03:27:24;9.40;99.90
75091;DHT22;63674;48.048;8.306;2023-11-19T03:30:12;9.40;99.90
75091;DHT22;63674;48.048;8.306;2023-11-19T03:32:59;9.40;99.90
75091;DHT22;63674;48.048;8.306;2023-11-19T03:35:48;9.40;99.90
75091;DHT22;63674;48.048;8.306;2023-11-19T03:38:38;9.40;99.90
75091;DHT22;63674;48.048;8.306;2023-11-19T03:41:28;9.40;99.90
75091;DHT22;63674;48.048;8.306;2023-11-19T03:44:27;9.30;99.90
75091;DHT22;63674;48.048;8.306;2023-11-19T03:47:14;9.40;99.90
75091;DHT22;63674;48.048;8.306;2023-11-19T03:49:42;9.40;99.90
75091;DHT22;63674;48.048;8.306;2023-11-19T03:52:17;9.30;99.90
75091;DHT22;63674;48.048;8.306;2023-11-19T03:54:47;9.30;99.90
75091;DHT22;63674;48.048;8.306;2023-11-19T03:57:16;9.40;99.90
75091;DHT22;63674;48.048;8.306;2023-11-19T03:59:45;9.30;99.90
75091;DHT22;63674;48.048;8.306;2023-11-19T04:02:15;9.30;99.90
75091;DHT22;63674;48.048;8.306;2023-11-19T04:04:44;9.30;99.90
75091;DHT22;63674;48.048;8.306;2023-11-19T04:07:13;9.30;99.90
75091;DHT22;63674;48.048;8.306;2023-11-19T04:09:44;9.40;99.90
75091;DHT22;63674;48.048;8.306;2023-11-19T04:12:14;9.40;99.90
75091;DHT22;63674;48.048;8.306;2023-11-19T04:14:42;9.30;99.90
75091;DHT22;63674;48.048;8.306;2023-11-19T04:17:11;9.30;99.90
75091;DHT22;63674;48.048;8.306;2023-11-19T04:19:39;9.40;99.90
75091;DHT22;63674;48.048;8.306;2023-11-19T04:22:08;9.40;99.90
75091;DHT22;63674;48.048;8.306;2023-11-19T04:24:38;9.40;99.90
75091;DHT22;63674;48.048;8.306;2023-11-19T04:27:09;9.40;99.90
75091;DHT22;63674;48.048;8.306;2023-11-19T04:29:37;9.40;99.90
75091;DHT22;63674;48.048;8.306;2023-11-19T04:32:06;9.30;99.90
75091;DHT22;63674;48.048;8.306;2023-11-19T04:34:35;9.30;99.90
75091;DHT22;63674;48.048;8.306;2023-11-19T04:37:04;9.30;99.90
75091;DHT22;63674;48.048;8.306;2023-11-19T04:39:36;9.30;99.90
75091;DHT22;63674;48.048;8.306;2023-11-19T04:42:05;9.30;99.90
75091;DHT22;63674;48.048;8.306;2023-11-19T04:44:35;9.30;99.90
75091;DHT22;63674;48.048;8.306;2023-11-19T04:47:04;9.30;99.90
75091;DHT22;63674;48.048;8.306;2023-11-19T04:49:33;9.30;99.90
75091;DHT22;63674;48.048;8.306;2023-11-19T04:52:01;9.30;99.90
75091;DHT22;63674;48.048;8.306;2023-11-19T04:54:30;9.30;99.90
75091;DHT22;63674;48.048;8.306;2023-11-19T04:56:59;9.30;99.90
75091;DHT22;63674;48.048;8.306;2023-11-19T04:59:27;9.30;99.90
75091;DHT22;63674;48.048;8.306;2023-11-19T05:01:57;9.30;99.90
75091;DHT22;63674;48.048;8.306;2023-11-19T05:04:26;9.30;99.90
75091;DHT22;63674;48.048;8.306;2023-11-19T05:06:54;9.30;99.90
75091;DHT22;63674;48.048;8.306;2023-11-19T05:09:23;9.40;99.90
75091;DHT22;63674;48.048;8.306;2023-11-19T05:11:52;9.40;99.90
75091;DHT22;63674;48.048;8.306;2023-11-19T05:14:21;9.40;99.90
75091;DHT22;63674;48.048;8.306;2023-11-19T05:16:51;9.40;99.90
75091;DHT22;63674;48.048;8.306;2023-11-19T05:19:21;9.40;99.90
75091;DHT22;63674;48.048;8.306;2023-11-19T05:21:50;9.40;99.90
75091;DHT22;63674;48.048;8.306;2023-11-19T05:24:19;9.40;99.90
75091;DHT22;63674;48.048;8.306;2023-11-19T05:26:48;9.40;99.90
75091;DHT22;63674;48.048;8.306;2023-11-19T05:29:17;9.50;99.90
75091;DHT22;63674;48.048;8.306;2023-11-19T05:31:45;9.40;99.90
75091;DHT22;63674;48.048;8.306;2023-11-19T05:34:15;9.40;99.90
75091;DHT22;63674;48.048;8.306;2023-11-19T05:36:45;9.50;99.90
75091;DHT22;63674;48.048;8.306;2023-11-19T05:39:14;9.40;99.90
75091;DHT22;63674;48.048;8.306;2023-11-19T05:41:46;9.40;99.90
75091;DHT22;63674;48.048;8.306;2023-11-19T05:44:14;9.40;99.90
75091;DHT22;63674;48.048;8.306;2023-11-19T05:46:43;9.50;99.90
75091;DHT22;63674;48.048;8.306;2023-11-19T05:49:12;9.40;99.90
75091;DHT22;63674;48.048;8.306;2023-11-19T05:51:41;9.40;99.90
75091;DHT22;63674;48.048;8.306;2023-11-19T05:54:11;9.50;99.90
75091;DHT22;63674;48.048;8.306;2023-11-19T05:56:40;9.40;99.90
75091;DHT22;63674;48.048;8.306;2023-11-19T05:59:09;9.40;99.90
75091;DHT22;63674;48.048;8.306;2023-11-19T06:01:42;9.50;99.90
75091;DHT22;63674;48.048;8.306;2023-11-19T06:04:11;9.50;99.90
75091;DHT22;63674;48.048;8.306;2023-11-19T06:06:40;9.50;99.90
75091;DHT22;63674;48.048;8.306;2023-11-19T06:09:10;9.50;99.90
75091;DHT22;63674;48.048;8.306;2023-11-19T06:11:40;9.50;99.90
75091;DHT22;63674;48.048;8.306;2023-11-19T06:14:09;9.50;99.90
75091;DHT22;63674;48.048;8.306;2023-11-19T06:16:38;9.30;99.90
75091;DHT22;63674;48.048;8.306;2023-11-19T06:19:07;9.50;99.90
75091;DHT22;63674;48.048;8.306;2023-11-19T06:21:37;9.50;99.90
75091;DHT22;63674;48.048;8.306;2023-11-19T06:24:06;9.50;99.90
75091;DHT22;63674;48.048;8.306;2023-11-19T06:26:37;9.50;99.90
75091;DHT22;63674;48.048;8.306;2023-11-19T06:29:06;9.50;99.90
75091;DHT22;63674;48.048;8.306;2023-11-19T06:31:34;9.50;99.90
75091;DHT22;63674;48.048;8.306;2023-11-19T06:34:04;9.50;99.90
75091;DHT22;63674;48.048;8.306;2023-11-19T06:36:32;9.50;99.90
75091;DHT22;63674;48.048;8.306;2023-11-19T06:39:01;9.50;99.90
75091;DHT22;63674;48.048;8.306;2023-11-19T06:41:31;9.50;99.90
75091;DHT22;63674;48.048;8.306;2023-11-19T06:44:01;9.50;99.90
75091;DHT22;63674;48.048;8.306;2023-11-19T06:46:30;9.50;99.90
75091;DHT22;63674;48.048;8.306;2023-11-19T06:48:59;9.60;99.90
75091;DHT22;63674;48.048;8.306;2023-11-19T06:51:28;9.60;99.90
75091;DHT22;63674;48.048;8.306;2023-11-19T06:53:57;9.60;99.90
75091;DHT22;63674;48.048;8.306;2023-11-19T06:56:26;9.60;99.90
75091;DHT22;63674;48.048;8.306;2023-11-19T06:58:55;9.60;99.90
75091;DHT22;63674;48.048;8.306;2023-11-19T07:01:25;9.60;99.90
75091;DHT22;63674;48.048;8.306;2023-11-19T07:03:54;9.60;99.90
75091;DHT22;63674;48.048;8.306;2023-11-19T07:06:25;9.70;99.90
75091;DHT22;63674;48.048;8.306;2023-11-19T07:08:56;9.60;99.90
75091;DHT22;63674;48.048;8.306;2023-11-19T07:11:25;9.70;99.90
75091;DHT22;63674;48.048;8.306;2023-11-19T07:13:54;9.60;99.90
75091;DHT22;63674;48.048;8.306;2023-11-19T07:16:22;9.60;99.90
75091;DHT22;63674;48.048;8.306;2023-11-19T07:18:52;9.70;99.90
75091;DHT22;63674;48.048;8.306;2023-11-19T07:21:21;9.70;99.90
75091;DHT22;63674;48.048;8.306;2023-11-19T07:23:49;9.70;99.90
75091;DHT22;63674;48.048;8.306;2023-11-19T07:26:19;9.70;99.90
75091;DHT22;63674;48.048;8.306;2023-11-19T07:28:47;9.80;99.90
75091;DHT22;63674;48.048;8.306;2023-11-19T07:31:16;9.80;99.90
75091;DHT22;63674;48.048;8.306;2023-11-19T07:33:46;9.80;99.90
75091;DHT22;63674;48.048;8.306;2023-11-19T07:36:16;9.80;99.90
75091;DHT22;63674;48.048;8.306;2023-11-19T07:38:45;9.80;99.90
75091;DHT22;63674;48.048;8.306;2023-11-19T07:41:15;9.80;99.90
75091;DHT22;63674;48.048;8.306;2023-11-19T07:43:43;9.80;99.90
75091;DHT22;63674;48.048;8.306;2023-11-19T07:46:14;9.90;99.90
75091;DHT22;63674;48.048;8.306;2023-11-19T07:48:42;9.90;99.90
75091;DHT22;63674;48.048;8.306;2023-11-19T07:51:11;9.90;99.90
75091;DHT22;63674;48.048;8.306;2023-11-19T07:53:41;9.90;99.90
75091;DHT22;63674;48.048;8.306;2023-11-19T07:56:10;9.90;99.90
75091;DHT22;63674;48.048;8.306;2023-11-19T07:58:40;10.00;99.90
75091;DHT22;63674;48.048;8.306;2023-11-19T08:01:09;9.90;99.90
75091;DHT22;63674;48.048;8.306;2023-11-19T08:03:37;10.00;99.90
75091;DHT22;63674;48.048;8.306;2023-11-19T08:06:07;10.00;99.90
75091;DHT22;63674;48.048;8.306;2023-11-19T08:08:35;10.00;99.90
75091;DHT22;63674;48.048;8.306;2023-11-19T08:11:07;10.00;99.90
75091;DHT22;63674;48.048;8.306;2023-11-19T08:13:35;10.00;99.90
75091;DHT22;63674;48.048;8.306;2023-11-19T08:16:04;10.00;99.90
75091;DHT22;63674;48.048;8.306;2023-11-19T08:18:34;10.00;99.90
75091;DHT22;63674;48.048;8.306;2023-11-19T08:21:03;10.10;99.90
75091;DHT22;63674;48.048;8.306;2023-11-19T08:23:32;10.10;99.90
75091;DHT22;63674;48.048;8.306;2023-11-19T08:26:00;10.10;99.90
75091;DHT22;63674;48.048;8.306;2023-11-19T08:28:30;10.10;99.90
75091;DHT22;63674;48.048;8.306;2023-11-19T08:31:01;10.10;99.90
75091;DHT22;63674;48.048;8.306;2023-11-19T08:33:33;10.10;99.90
75091;DHT22;63674;48.048;8.306;2023-11-19T08:36:01;10.10;99.90
75091;DHT22;63674;48.048;8.306;2023-11-19T08:38:31;10.10;99.90
75091;DHT22;63674;48.048;8.306;2023-11-19T08:41:00;10.10;99.90
75091;DHT22;63674;48.048;8.306;2023-11-19T08:43:30;10.20;99.90
75091;DHT22;63674;48.048;8.306;2023-11-19T08:45:59;10.30;99.90
75091;DHT22;63674;48.048;8.306;2023-11-19T08:48:27;10.40;99.90
75091;DHT22;63674;48.048;8.306;2023-11-19T08:50:56;10.40;99.90
75091;DHT22;63674;48.048;8.306;2023-11-19T08:53:24;10.40;99.90
75091;DHT22;63674;48.048;8.306;2023-11-19T08:55:53;10.40;99.90
75091;DHT22;63674;48.048;8.306;2023-11-19T08:58:21;10.40;99.90
75091;DHT22;63674;48.048;8.306;2023-11-19T09:00:51;10.50;99.90
75091;DHT22;63674;48.048;8.306;2023-11-19T09:03:21;10.50;99.90
75091;DHT22;63674;48.048;8.306;2023-11-19T09:05:49;10.60;99.90
75091;DHT22;63674;48.048;8.306;2023-11-19T09:08:19;10.60;99.90
75091;DHT22;63674;48.048;8.306;2023-11-19T09:10:47;10.70;99.90
75091;DHT22;63674;48.048;8.306;2023-11-19T09:13:16;10.80;99.90
75091;DHT22;63674;48.048;8.306;2023-11-19T09:15:44;10.80;99.90
75091;DHT22;63674;48.048;8.306;2023-11-19T09:18:15;10.70;99.90
75091;DHT22;63674;48.048;8.306;2023-11-19T09:20:43;10.70;99.90
75091;DHT22;63674;48.048;8.306;2023-11-19T09:23:12;10.70;99.90
75091;DHT22;63674;48.048;8.306;2023-11-19T09:25:41;10.70;99.90
75091;DHT22;63674;48.048;8.306;2023-11-19T09:28:11;10.80;99.90
75091;DHT22;63674;48.048;8.306;2023-11-19T09:30:41;10.80;99.90
75091;DHT22;63674;48.048;8.306;2023-11-19T09:33:10;10.80;99.90
75091;DHT22;63674;48.048;8.306;2023-11-19T09:35:40;10.90;99.90
75091;DHT22;63674;48.048;8.306;2023-11-19T09:38:09;11.00;99.90
75091;DHT22;63674;48.048;8.306;2023-11-19T09:40:39;11.00;99.90
75091;DHT22;63674;48.048;8.306;2023-11-19T09:43:08;11.10;99.90
75091;DHT22;63674;48.048;8.306;2023-11-19T09:45:48;11.00;99.90
75091;DHT22;63674;48.048;8.306;2023-11-19T09:48:18;11.00;99.90
75091;DHT22;63674;48.048;8.306;2023-11-19T09:50:48;11.10;99.90
75091;DHT22;63674;48.048;8.306;2023-11-19T09:53:18;11.10;99.90
75091;DHT22;63674;48.048;8.306;2023-11-19T09:55:48;11.10;99.90
75091;DHT22;63674;48.048;8.306;2023-11-19T09:58:17;11.20;99.90
75091;DHT22;63674;48.048;8.306;2023-11-19T10:00:46;11.30;99.90
75091;DHT22;63674;48.048;8.306;2023-11-19T10:03:36;11.30;99.90
75091;DHT22;63674;48.048;8.306;2023-11-19T10:06:08;11.30;99.90
75091;DHT22;63674;48.048;8.306;2023-11-19T10:08:38;11.20;99.90
75091;DHT22;63674;48.048;8.306;2023-11-19T10:11:07;11.20;99.90
75091;DHT22;63674;48.048;8.306;2023-11-19T10:13:37;11.30;99.90
75091;DHT22;63674;48.048;8.306;2023-11-19T10:16:08;11.20;99.90
75091;DHT22;63674;48.048;8.306;2023-11-19T10:18:43;11.30;99.90
75091;DHT22;63674;48.048;8.306;2023-11-19T10:21:14;11.30;99.90
75091;DHT22;63674;48.048;8.306;2023-11-19T10:23:51;11.30;99.90
75091;DHT22;63674;48.048;8.306;2023-11-19T10:26:21;11.20;99.90
75091;DHT22;63674;48.048;8.306;2023-11-19T10:28:49;11.10;99.90
75091;DHT22;63674;48.048;8.306;2023-11-19T10:31:20;11.10;99.90
75091;DHT22;63674;48.048;8.306;2023-11-19T10:33:53;11.20;99.90
75091;DHT22;63674;48.048;8.306;2023-11-19T10:36:37;11.10;99.90
75091;DHT22;63674;48.048;8.306;2023-11-19T10:39:08;11.10;99.90
75091;DHT22;63674;48.048;8.306;2023-11-19T10:41:37;11.00;99.90
75091;DHT22;63674;48.048;8.306;2023-11-19T10:44:06;11.10;99.90
75091;DHT22;63674;48.048;8.306;2023-11-19T10:46:39;11.10;99.90
75091;DHT22;63674;48.048;8.306;2023-11-19T10:49:09;11.20;99.90
75091;DHT22;63674;48.048;8.306;2023-11-19T10:51:44;11.20;99.90
75091;DHT22;63674;48.048;8.306;2023-11-19T10:54:15;11.20;99.90
75091;DHT22;63674;48.048;8.306;2023-11-19T10:56:54;11.10;99.90
75091;DHT22;63674;48.048;8.306;2023-11-19T10:59:29;11.10;99.90
75091;DHT22;63674;48.048;8.306;2023-11-19T11:02:03;11.10;99.90
75091;DHT22;63674;48.048;8.306;2023-11-19T11:04:39;11.20;99.90
75091;DHT22;63674;48.048;8.306;2023-11-19T11:07:10;11.30;99.90
75091;DHT22;63674;48.048;8.306;2023-11-19T11:09:39;11.40;99.90
75091;DHT22;63674;48.048;8.306;2023-11-19T11:12:10;11.40;99.90
75091;DHT22;63674;48.048;8.306;2023-11-19T11:14:40;11.40;99.90
75091;DHT22;63674;48.048;8.306;2023-11-19T11:17:12;11.60;99.90
75091;DHT22;63674;48.048;8.306;2023-11-19T11:19:42;11.60;99.90
75091;DHT22;63674;48.048;8.306;2023-11-19T11:22:14;11.50;99.90
75091;DHT22;63674;48.048;8.306;2023-11-19T11:25:19;11.40;99.90
75091;DHT22;63674;48.048;8.306;2023-11-19T11:28:04;11.40;99.90
75091;DHT22;63674;48.048;8.306;2023-11-19T11:30:53;11.30;99.90
75091;DHT22;63674;48.048;8.306;2023-11-19T11:33:38;11.40;99.90
75091;DHT22;63674;48.048;8.306;2023-11-19T11:36:31;11.50;99.90
75091;DHT22;63674;48.048;8.306;2023-11-19T11:39:04;11.60;99.90
75091;DHT22;63674;48.048;8.306;2023-11-19T11:41:35;11.70;99.90
75091;DHT22;63674;48.048;8.306;2023-11-19T11:44:03;11.80;99.90
75091;DHT22;63674;48.048;8.306;2023-11-19T11:46:54;11.90;99.90
75091;DHT22;63674;48.048;8.306;2023-11-19T11:49:28;12.00;99.90
75091;DHT22;63674;48.048;8.306;2023-11-19T11:52:03;12.00;99.90
75091;DHT22;63674;48.048;8.306;2023-11-19T11:54:34;12.00;99.90
75091;DHT22;63674;48.048;8.306;2023-11-19T11:57:10;12.00;99.90
75091;DHT22;63674;48.048;8.306;2023-11-19T11:59:48;11.80;99.90
75091;DHT22;63674;48.048;8.306;2023-11-19T12:02:19;11.80;99.90
75091;DHT22;63674;48.048;8.306;2023-11-19T12:04:50;11.80;99.90
75091;DHT22;63674;48.048;8.306;2023-11-19T12:07:21;11.80;99.90
75091;DHT22;63674;48.048;8.306;2023-11-19T12:10:07;12.00;99.90
75091;DHT22;63674;48.048;8.306;2023-11-19T12:12:40;12.00;99.90
75091;DHT22;63674;48.048;8.306;2023-11-19T12:15:09;12.00;99.90
75091;DHT22;63674;48.048;8.306;2023-11-19T12:17:48;12.10;99.90
75091;DHT22;63674;48.048;8.306;2023-11-19T12:20:19;12.00;99.90
75091;DHT22;63674;48.048;8.306;2023-11-19T12:22:53;11.90;99.90
75091;DHT22;63674;48.048;8.306;2023-11-19T12:25:23;11.80;99.90
75091;DHT22;63674;48.048;8.306;2023-11-19T12:27:53;11.80;99.90
75091;DHT22;63674;48.048;8.306;2023-11-19T12:30:22;11.70;99.90
75091;DHT22;63674;48.048;8.306;2023-11-19T12:32:53;11.70;99.90
75091;DHT22;63674;48.048;8.306;2023-11-19T12:35:22;11.70;99.90
75091;DHT22;63674;48.048;8.306;2023-11-19T12:37:52;11.70;99.90
75091;DHT22;63674;48.048;8.306;2023-11-19T12:40:23;11.70;99.90
75091;DHT22;63674;48.048;8.306;2023-11-19T12:42:53;11.70;99.90
75091;DHT22;63674;48.048;8.306;2023-11-19T12:45:23;11.60;99.90
75091;DHT22;63674;48.048;8.306;2023-11-19T12:48:04;11.50;99.90
75091;DHT22;63674;48.048;8.306;2023-11-19T12:50:51;11.40;99.90
75091;DHT22;63674;48.048;8.306;2023-11-19T12:53:20;11.40;99.90
75091;DHT22;63674;48.048;8.306;2023-11-19T12:55:51;11.50;99.90
75091;DHT22;63674;48.048;8.306;2023-11-19T12:58:30;11.50;99.90
75091;DHT22;63674;48.048;8.306;2023-11-19T13:01:01;11.50;99.90
75091;DHT22;63674;48.048;8.306;2023-11-19T13:03:31;11.50;99.90
75091;DHT22;63674;48.048;8.306;2023-11-19T13:06:04;11.60;99.90
75091;DHT22;63674;48.048;8.306;2023-11-19T13:08:38;11.70;99.90
75091;DHT22;63674;48.048;8.306;2023-11-19T13:11:09;11.60;99.90
75091;DHT22;63674;48.048;8.306;2023-11-19T13:13:54;11.60;99.90
75091;DHT22;63674;48.048;8.306;2023-11-19T13:16:23;11.50;99.90
75091;DHT22;63674;48.048;8.306;2023-11-19T13:18:52;11.50;99.90
75091;DHT22;63674;48.048;8.306;2023-11-19T13:21:21;11.40;99.90
75091;DHT22;63674;48.048;8.306;2023-11-19T13:23:50;11.30;99.90
75091;DHT22;63674;48.048;8.306;2023-11-19T13:26:20;11.30;99.90
75091;DHT22;63674;48.048;8.306;2023-11-19T13:28:49;11.40;99.90
75091;DHT22;63674;48.048;8.306;2023-11-19T13:31:17;11.40;99.90
75091;DHT22;63674;48.048;8.306;2023-11-19T13:33:46;11.40;99.90
75091;DHT22;63674;48.048;8.306;2023-11-19T13:36:15;11.40;99.90
75091;DHT22;63674;48.048;8.306;2023-11-19T13:38:43;11.30;99.90
75091;DHT22;63674;48.048;8.306;2023-11-19T13:41:12;11.30;99.90
75091;DHT22;63674;48.048;8.306;2023-11-19T13:43:42;11.20;99.90
75091;DHT22;63674;48.048;8.306;2023-11-19T13:46:11;11.20;99.90
75091;DHT22;63674;48.048;8.306;2023-11-19T13:48:40;11.20;99.90
75091;DHT22;63674;48.048;8.306;2023-11-19T13:51:09;11.20;99.90
75091;DHT22;63674;48.048;8.306;2023-11-19T13:53:37;11.30;99.90
75091;DHT22;63674;48.048;8.306;2023-11-19T13:56:09;11.20;99.90
75091;DHT22;63674;48.048;8.306;2023-11-19T13:58:38;11.20;99.90
75091;DHT22;63674;48.048;8.306;2023-11-19T14:01:09;11.20;99.90
75091;DHT22;63674;48.048;8.306;2023-11-19T14:03:40;11.30;99.90
75091;DHT22;63674;48.048;8.306;2023-11-19T14:06:09;11.40;99.90
75091;DHT22;63674;48.048;8.306;2023-11-19T14:08:39;11.40;99.90
75091;DHT22;63674;48.048;8.306;2023-11-19T14:11:08;11.50;99.90
75091;DHT22;63674;48.048;8.306;2023-11-19T14:13:37;11.40;99.90
75091;DHT22;63674;48.048;8.306;2023-11-19T14:16:06;11.40;99.90
75091;DHT22;63674;48.048;8.306;2023-11-19T14:18:37;11.40;99.90
75091;DHT22;63674;48.048;8.306;2023-11-19T14:21:06;11.40;99.90
75091;DHT22;63674;48.048;8.306;2023-11-19T14:23:35;11.30;99.90
75091;DHT22;63674;48.048;8.306;2023-11-19T14:26:04;11.30;99.90
75091;DHT22;63674;48.048;8.306;2023-11-19T14:28:33;11.30;99.90
75091;DHT22;63674;48.048;8.306;2023-11-19T14:31:01;11.20;99.90
75091;DHT22;63674;48.048;8.306;2023-11-19T14:33:30;11.20;99.90
75091;DHT22;63674;48.048;8.306;2023-11-19T14:36:00;11.20;99.90
75091;DHT22;63674;48.048;8.306;2023-11-19T14:38:29;11.20;99.90
75091;DHT22;63674;48.048;8.306;2023-11-19T14:40:59;11.10;99.90
75091;DHT22;63674;48.048;8.306;2023-11-19T14:43:28;10.90;99.90
75091;DHT22;63674;48.048;8.306;2023-11-19T14:45:56;10.90;99.90
75091;DHT22;63674;48.048;8.306;2023-11-19T14:48:25;10.80;99.90
75091;DHT22;63674;48.048;8.306;2023-11-19T14:50:54;10.70;99.90
75091;DHT22;63674;48.048;8.306;2023-11-19T14:53:24;10.70;99.90
75091;DHT22;63674;48.048;8.306;2023-11-19T14:55:52;10.70;99.90
75091;DHT22;63674;48.048;8.306;2023-11-19T14:58:21;10.70;99.90
75091;DHT22;63674;48.048;8.306;2023-11-19T15:00:50;10.60;99.90
75091;DHT22;63674;48.048;8.306;2023-11-19T15:03:18;10.50;99.90
75091;DHT22;63674;48.048;8.306;2023-11-19T15:05:48;10.40;99.90
75091;DHT22;63674;48.048;8.306;2023-11-19T15:08:17;10.30;99.90
75091;DHT22;63674;48.048;8.306;2023-11-19T15:10:47;10.30;99.90
75091;DHT22;63674;48.048;8.306;2023-11-19T15:13:16;10.20;99.90
75091;DHT22;63674;48.048;8.306;2023-11-19T15:15:45;10.10;99.90
75091;DHT22;63674;48.048;8.306;2023-11-19T15:18:14;10.00;99.90
75091;DHT22;63674;48.048;8.306;2023-11-19T15:20:43;9.90;99.90
75091;DHT22;63674;48.048;8.306;2023-11-19T15:23:14;9.80;99.90
75091;DHT22;63674;48.048;8.306;2023-11-19T15:25:43;9.80;99.90
75091;DHT22;63674;48.048;8.306;2023-11-19T15:28:13;9.70;99.90
75091;DHT22;63674;48.048;8.306;2023-11-19T15:30:42;9.70;99.90
75091;DHT22;63674;48.048;8.306;2023-11-19T15:33:10;9.60;99.90
75091;DHT22;63674;48.048;8.306;2023-11-19T15:35:39;9.60;99.90
75091;DHT22;63674;48.048;8.306;2023-11-19T15:38:08;9.50;99.90
75091;DHT22;63674;48.048;8.306;2023-11-19T15:40:37;9.40;99.90
75091;DHT22;63674;48.048;8.306;2023-11-19T15:43:05;9.40;99.90
75091;DHT22;63674;48.048;8.306;2023-11-19T15:45:35;9.30;99.90
75091;DHT22;63674;48.048;8.306;2023-11-19T15:48:06;9.30;99.90
75091;DHT22;63674;48.048;8.306;2023-11-19T15:50:34;9.30;99.90
75091;DHT22;63674;48.048;8.306;2023-11-19T15:53:03;9.20;99.90
75091;DHT22;63674;48.048;8.306;2023-11-19T15:55:32;9.20;99.90
75091;DHT22;63674;48.048;8.306;2023-11-19T15:58:00;9.20;99.90
75091;DHT22;63674;48.048;8.306;2023-11-19T16:00:29;9.10;99.90
75091;DHT22;63674;48.048;8.306;2023-11-19T16:03:00;9.10;99.90
75091;DHT22;63674;48.048;8.306;2023-11-19T16:05:29;9.10;99.90
75091;DHT22;63674;48.048;8.306;2023-11-19T16:07:58;9.10;99.90